Time,TemperatureF,DewpointF,PressureIn,WindDirection,WindDirectionDegrees,WindSpeedMPH,WindSpeedGustMPH,Humidity,HourlyPrecipIn,Conditions,Clouds,dailyrainin,SolarRadiationWatts/m^2,SoftwareType,DateUTC
2013-04-03 00:03:00,29.0,20.0,-100.00,ESE,110,0.0,0.0,70,0.00,,,0.00,0.000000,,2013-04-03 04:03:00,
2013-04-03 00:13:00,29.0,20.0,-100.00,ESE,110,0.0,0.0,70,0.00,,,0.00,0.000000,,2013-04-03 04:13:00,
2013-04-03 00:43:00,28.0,22.0,-100.00,East,101,0.0,0.0,78,0.00,,,0.00,0.000000,,2013-04-03 04:43:00,
2013-04-03 00:53:00,28.0,22.0,-100.00,East,101,0.0,0.0,78,0.00,,,0.00,0.000000,,2013-04-03 04:53:00,
2013-04-03 01:03:00,28.0,22.0,-100.00,East,101,0.0,0.0,78,0.00,,,0.00,0.000000,,2013-04-03 05:03:00,
2013-04-03 01:12:00,28.0,22.0,-100.00,East,101,0.0,0.0,78,0.00,,,0.00,0.000000,,2013-04-03 05:12:00,
2013-04-03 01:22:00,28.0,22.0,-100.00,East,101,0.0,0.0,78,0.00,,,0.00,0.000000,,2013-04-03 05:22:00,
2013-04-03 01:42:00,28.0,20.0,-100.00,ESE,114,0.0,2.0,72,0.00,,,0.00,0.000000,,2013-04-03 05:42:00,
2013-04-03 01:53:00,28.0,20.0,-100.00,ESE,114,0.0,2.0,72,0.00,,,0.00,0.000000,,2013-04-03 05:53:00,
2013-04-03 02:03:00,28.0,20.0,-100.00,ESE,114,0.0,2.0,72,0.00,,,0.00,0.000000,,2013-04-03 06:03:00,
2013-04-03 02:12:00,28.0,20.0,-100.00,ESE,114,0.0,2.0,72,0.00,,,0.00,0.000000,,2013-04-03 06:12:00,
2013-04-03 02:22:00,28.0,20.0,-100.00,ESE,114,0.0,2.0,72,0.00,,,0.00,0.000000,,2013-04-03 06:22:00,
2013-04-03 02:23:00,27.0,17.0,-100.00,East,98,0.0,0.0,65,0.00,,,0.00,0.000000,,2013-04-03 06:23:00,
2013-04-03 02:42:00,27.0,17.0,-100.00,East,98,0.0,0.0,65,0.00,,,0.00,0.000000,,2013-04-03 06:42:00,
2013-04-03 02:52:00,27.0,17.0,-100.00,East,98,0.0,0.0,65,0.00,,,0.00,0.000000,,2013-04-03 06:52:00,
2013-04-03 03:02:00,27.0,17.0,-100.00,East,98,0.0,0.0,65,0.00,,,0.00,0.000000,,2013-04-03 07:02:00,
2013-04-03 03:12:00,27.0,17.0,-100.00,East,98,0.0,0.0,65,0.00,,,0.00,0.000000,,2013-04-03 07:12:00,
2013-04-03 03:43:00,27.0,16.0,-100.00,ESE,107,0.0,0.0,64,0.00,,,0.00,0.000000,,2013-04-03 07:43:00,
2013-04-03 03:53:00,27.0,16.0,-100.00,ESE,107,0.0,0.0,64,0.00,,,0.00,0.000000,,2013-04-03 07:53:00,
2013-04-03 04:03:00,27.0,16.0,-100.00,ESE,107,0.0,0.0,64,0.00,,,0.00,0.000000,,2013-04-03 08:03:00,
2013-04-03 04:12:00,27.0,16.0,-100.00,ESE,107,0.0,0.0,64,0.00,,,0.00,0.000000,,2013-04-03 08:12:00,
2013-04-03 04:22:00,27.0,16.0,-100.00,ESE,107,0.0,0.0,64,0.00,,,0.00,0.000000,,2013-04-03 08:22:00,
2013-04-03 04:43:00,26.0,16.0,-100.00,ENE,58,0.0,0.0,65,0.00,,,0.00,0.000000,,2013-04-03 08:43:00,
2013-04-03 04:52:00,26.0,16.0,-100.00,ENE,58,0.0,0.0,65,0.00,,,0.00,0.000000,,2013-04-03 08:52:00,
2013-04-03 05:02:00,26.0,16.0,-100.00,ENE,58,0.0,0.0,65,0.00,,,0.00,0.000000,,2013-04-03 09:02:00,
2013-04-03 05:12:00,26.0,16.0,-100.00,ENE,58,0.0,0.0,65,0.00,,,0.00,0.000000,,2013-04-03 09:12:00,
2013-04-03 05:22:00,26.0,16.0,-100.00,ENE,58,0.0,0.0,65,0.00,,,0.00,0.000000,,2013-04-03 09:22:00,
2013-04-03 05:53:00,25.0,15.0,-100.00,ESE,104,0.0,0.0,66,0.00,,,0.00,0.000000,,2013-04-03 09:53:00,
2013-04-03 06:03:00,25.0,15.0,-100.00,ESE,104,0.0,0.0,66,0.00,,,0.00,0.000000,,2013-04-03 10:03:00,
2013-04-03 06:12:00,25.0,15.0,-100.00,ESE,104,0.0,0.0,66,0.00,,,0.00,0.000000,,2013-04-03 10:12:00,
2013-04-03 06:22:00,25.0,15.0,-100.00,ESE,104,0.0,0.0,66,0.00,,,0.00,0.000000,,2013-04-03 10:22:00,
2013-04-03 06:23:00,24.0,15.0,-100.00,East,91,0.0,0.0,69,0.00,,,0.00,0.000000,,2013-04-03 10:23:00,
2013-04-03 06:43:00,24.0,15.0,-100.00,East,91,0.0,0.0,69,0.00,,,0.00,0.000000,,2013-04-03 10:43:00,
2013-04-03 06:53:00,24.0,15.0,-100.00,East,91,0.0,0.0,69,0.00,,,0.00,0.000000,,2013-04-03 10:53:00,
2013-04-03 07:02:00,24.0,15.0,-100.00,East,91,0.0,0.0,69,0.00,,,0.00,0.000000,,2013-04-03 11:02:00,
2013-04-03 07:12:00,24.0,15.0,-100.00,East,91,0.0,0.0,69,0.00,,,0.00,0.000000,,2013-04-03 11:12:00,
2013-04-03 07:42:00,23.0,15.0,-100.00,WNW,300,0.0,0.0,72,0.00,,,0.00,1.000000,,2013-04-03 11:42:00,
2013-04-03 07:53:00,23.0,15.0,-100.00,WNW,300,0.0,0.0,72,0.00,,,0.00,1.000000,,2013-04-03 11:53:00,
2013-04-03 08:02:00,23.0,15.0,-100.00,WNW,300,0.0,0.0,72,0.00,,,0.00,1.000000,,2013-04-03 12:02:00,
2013-04-03 08:13:00,23.0,15.0,-100.00,WNW,300,0.0,0.0,72,0.00,,,0.00,1.000000,,2013-04-03 12:13:00,
2013-04-03 08:22:00,23.0,15.0,-100.00,WNW,300,0.0,0.0,72,0.00,,,0.00,1.000000,,2013-04-03 12:22:00,
2013-04-03 08:42:00,26.0,18.0,-100.00,NW,314,1.0,3.0,72,0.00,,,0.00,31.000000,,2013-04-03 12:42:00,
2013-04-03 08:52:00,26.0,18.0,-100.00,NW,314,1.0,3.0,72,0.00,,,0.00,31.000000,,2013-04-03 12:52:00,
2013-04-03 09:02:00,26.0,18.0,-100.00,NW,314,1.0,3.0,72,0.00,,,0.00,31.000000,,2013-04-03 13:02:00,
2013-04-03 09:12:00,26.0,18.0,-100.00,NW,314,1.0,3.0,72,0.00,,,0.00,31.000000,,2013-04-03 13:12:00,
2013-04-03 09:22:00,26.0,18.0,-100.00,NW,314,1.0,3.0,72,0.00,,,0.00,31.000000,,2013-04-03 13:22:00,
2013-04-03 09:52:00,33.0,19.0,-100.00,NW,311,2.0,5.0,56,0.00,,,0.00,181.000000,,2013-04-03 13:52:00,
2013-04-03 10:02:00,33.0,19.0,-100.00,NW,311,2.0,5.0,56,0.00,,,0.00,181.000000,,2013-04-03 14:02:00,
2013-04-03 10:13:00,33.0,19.0,-100.00,NW,311,2.0,5.0,56,0.00,,,0.00,181.000000,,2013-04-03 14:13:00,
2013-04-03 10:22:00,33.0,19.0,-100.00,NW,311,2.0,5.0,56,0.00,,,0.00,181.000000,,2013-04-03 14:22:00,
2013-04-03 10:23:00,36.0,21.0,-100.00,NW,312,4.0,8.0,53,0.00,,,0.00,284.000000,,2013-04-03 14:23:00,
2013-04-03 10:43:00,36.0,21.0,-100.00,NW,312,4.0,8.0,53,0.00,,,0.00,284.000000,,2013-04-03 14:43:00,
2013-04-03 10:52:00,36.0,21.0,-100.00,NW,312,4.0,8.0,53,0.00,,,0.00,284.000000,,2013-04-03 14:52:00,
2013-04-03 11:02:00,36.0,21.0,-100.00,NW,312,4.0,8.0,53,0.00,,,0.00,284.000000,,2013-04-03 15:02:00,
2013-04-03 11:13:00,36.0,21.0,-100.00,NW,312,4.0,8.0,53,0.00,,,0.00,284.000000,,2013-04-03 15:13:00,
2013-04-03 11:23:00,39.0,18.0,-100.00,WNW,282,3.0,8.0,42,0.00,,,0.00,555.000000,,2013-04-03 15:23:00,
2013-04-03 11:43:00,39.0,18.0,-100.00,WNW,282,3.0,8.0,42,0.00,,,0.00,555.000000,,2013-04-03 15:43:00,
2013-04-03 11:53:00,39.0,18.0,-100.00,WNW,282,3.0,8.0,42,0.00,,,0.00,555.000000,,2013-04-03 15:53:00,
2013-04-03 12:04:00,39.0,18.0,-100.00,WNW,282,3.0,8.0,42,0.00,,,0.00,555.000000,,2013-04-03 16:04:00,
2013-04-03 12:13:00,39.0,18.0,-100.00,WNW,282,3.0,8.0,42,0.00,,,0.00,555.000000,,2013-04-03 16:13:00,
2013-04-03 12:23:00,41.0,17.0,-100.00,NNE,12,4.0,11.0,38,0.00,,,0.00,737.000000,,2013-04-03 16:23:00,
2013-04-03 12:44:00,41.0,17.0,-100.00,NNE,12,4.0,11.0,38,0.00,,,0.00,737.000000,,2013-04-03 16:44:00,
2013-04-03 12:53:00,41.0,17.0,-100.00,NNE,12,4.0,11.0,38,0.00,,,0.00,737.000000,,2013-04-03 16:53:00,
2013-04-03 13:03:00,41.0,17.0,-100.00,NNE,12,4.0,11.0,38,0.00,,,0.00,737.000000,,2013-04-03 17:03:00,
2013-04-03 13:14:00,41.0,17.0,-100.00,NNE,12,4.0,11.0,38,0.00,,,0.00,737.000000,,2013-04-03 17:14:00,
2013-04-03 13:23:00,42.0,16.0,-100.00,NW,318,7.0,13.0,35,0.00,,,0.00,805.000000,,2013-04-03 17:23:00,
2013-04-03 13:47:00,42.0,16.0,-100.00,NW,318,7.0,13.0,35,0.00,,,0.00,805.000000,,2013-04-03 17:47:00,
2013-04-03 13:54:00,42.0,16.0,-100.00,NW,318,7.0,13.0,35,0.00,,,0.00,805.000000,,2013-04-03 17:54:00,
2013-04-03 14:03:00,42.0,16.0,-100.00,NW,318,7.0,13.0,35,0.00,,,0.00,805.000000,,2013-04-03 18:03:00,
2013-04-03 14:13:00,42.0,16.0,-100.00,NW,318,7.0,13.0,35,0.00,,,0.00,805.000000,,2013-04-03 18:13:00,
2013-04-03 14:43:00,45.0,18.0,-100.00,NNW,327,6.0,13.0,33,0.00,,,0.00,808.000000,,2013-04-03 18:43:00,
2013-04-03 14:52:00,45.0,18.0,-100.00,NNW,327,6.0,13.0,33,0.00,,,0.00,808.000000,,2013-04-03 18:52:00,
2013-04-03 15:03:00,45.0,18.0,-100.00,NNW,327,6.0,13.0,33,0.00,,,0.00,808.000000,,2013-04-03 19:03:00,
2013-04-03 15:12:00,45.0,18.0,-100.00,NNW,327,6.0,13.0,33,0.00,,,0.00,808.000000,,2013-04-03 19:12:00,
2013-04-03 15:22:00,45.0,18.0,-100.00,NNW,327,6.0,13.0,33,0.00,,,0.00,808.000000,,2013-04-03 19:22:00,
2013-04-03 15:23:00,44.0,16.0,-100.00,NW,320,7.0,19.0,32,0.00,,,0.00,756.000000,,2013-04-03 19:23:00,
2013-04-03 15:42:00,44.0,16.0,-100.00,NW,320,7.0,19.0,32,0.00,,,0.00,756.000000,,2013-04-03 19:42:00,
2013-04-03 15:52:00,44.0,16.0,-100.00,NW,320,7.0,19.0,32,0.00,,,0.00,756.000000,,2013-04-03 19:52:00,
2013-04-03 16:02:00,44.0,16.0,-100.00,NW,320,7.0,19.0,32,0.00,,,0.00,756.000000,,2013-04-03 20:02:00,
2013-04-03 16:13:00,44.0,16.0,-100.00,NW,320,7.0,19.0,32,0.00,,,0.00,756.000000,,2013-04-03 20:13:00,
2013-04-03 16:42:00,45.0,17.0,-100.00,WNW,301,8.0,16.0,32,0.00,,,0.00,660.000000,,2013-04-03 20:42:00,
2013-04-03 16:54:00,45.0,17.0,-100.00,WNW,301,8.0,16.0,32,0.00,,,0.00,660.000000,,2013-04-03 20:54:00,
2013-04-03 17:03:00,45.0,17.0,-100.00,WNW,301,8.0,16.0,32,0.00,,,0.00,660.000000,,2013-04-03 21:03:00,
2013-04-03 17:12:00,45.0,17.0,-100.00,WNW,301,8.0,16.0,32,0.00,,,0.00,660.000000,,2013-04-03 21:12:00,
2013-04-03 17:22:00,45.0,17.0,-100.00,WNW,301,8.0,16.0,32,0.00,,,0.00,660.000000,,2013-04-03 21:22:00,
2013-04-03 17:42:00,45.0,15.0,-100.00,WNW,303,4.0,15.0,30,0.00,,,0.00,342.000000,,2013-04-03 21:42:00,
2013-04-03 17:52:00,45.0,15.0,-100.00,WNW,303,4.0,15.0,30,0.00,,,0.00,342.000000,,2013-04-03 21:52:00,
2013-04-03 18:02:00,45.0,15.0,-100.00,WNW,303,4.0,15.0,30,0.00,,,0.00,342.000000,,2013-04-03 22:02:00,
2013-04-03 18:13:00,45.0,15.0,-100.00,WNW,303,4.0,15.0,30,0.00,,,0.00,342.000000,,2013-04-03 22:13:00,
2013-04-03 18:22:00,45.0,15.0,-100.00,WNW,303,4.0,15.0,30,0.00,,,0.00,342.000000,,2013-04-03 22:22:00,
2013-04-03 18:42:00,44.0,14.0,-100.00,WNW,292,4.0,12.0,29,0.00,,,0.00,250.000000,,2013-04-03 22:42:00,
2013-04-03 18:53:00,44.0,14.0,-100.00,WNW,292,4.0,12.0,29,0.00,,,0.00,250.000000,,2013-04-03 22:53:00,
2013-04-03 19:02:00,44.0,14.0,-100.00,WNW,292,4.0,12.0,29,0.00,,,0.00,250.000000,,2013-04-03 23:02:00,
2013-04-03 19:12:00,44.0,14.0,-100.00,WNW,292,4.0,12.0,29,0.00,,,0.00,250.000000,,2013-04-03 23:12:00,
2013-04-03 19:22:00,44.0,14.0,-100.00,WNW,292,4.0,12.0,29,0.00,,,0.00,250.000000,,2013-04-03 23:22:00,
2013-04-03 19:43:00,41.0,10.0,-100.00,WSW,252,2.0,11.0,28,0.00,,,0.00,52.000000,,2013-04-03 23:43:00,
2013-04-03 19:55:00,41.0,10.0,-100.00,WSW,252,2.0,11.0,28,0.00,,,0.00,52.000000,,2013-04-03 23:55:00,
2013-04-03 20:03:00,41.0,10.0,-100.00,WSW,252,2.0,11.0,28,0.00,,,0.00,52.000000,,2013-04-04 00:03:00,
2013-04-03 20:12:00,41.0,10.0,-100.00,WSW,252,2.0,11.0,28,0.00,,,0.00,52.000000,,2013-04-04 00:12:00,
2013-04-03 20:22:00,41.0,10.0,-100.00,WSW,252,2.0,11.0,28,0.00,,,0.00,52.000000,,2013-04-04 00:22:00,
2013-04-03 20:43:00,36.0,13.0,-100.00,ESE,110,1.0,7.0,38,0.00,,,0.00,8.000000,,2013-04-04 00:43:00,
2013-04-03 20:53:00,36.0,13.0,-100.00,ESE,110,1.0,7.0,38,0.00,,,0.00,8.000000,,2013-04-04 00:53:00,
2013-04-03 21:02:00,36.0,13.0,-100.00,ESE,110,1.0,7.0,38,0.00,,,0.00,8.000000,,2013-04-04 01:02:00,
2013-04-03 21:12:00,36.0,13.0,-100.00,ESE,110,1.0,7.0,38,0.00,,,0.00,8.000000,,2013-04-04 01:12:00,
2013-04-03 21:22:00,36.0,13.0,-100.00,ESE,110,1.0,7.0,38,0.00,,,0.00,8.000000,,2013-04-04 01:22:00,
2013-04-03 21:43:00,31.0,15.0,-100.00,East,99,1.0,5.0,50,0.00,,,0.00,0.000000,,2013-04-04 01:43:00,
2013-04-03 21:53:00,31.0,15.0,-100.00,East,99,1.0,5.0,50,0.00,,,0.00,0.000000,,2013-04-04 01:53:00,
2013-04-03 22:02:00,31.0,15.0,-100.00,East,99,1.0,5.0,50,0.00,,,0.00,0.000000,,2013-04-04 02:02:00,
2013-04-03 22:12:00,31.0,15.0,-100.00,East,99,1.0,5.0,50,0.00,,,0.00,0.000000,,2013-04-04 02:12:00,
2013-04-03 22:22:00,31.0,15.0,-100.00,East,99,1.0,5.0,50,0.00,,,0.00,0.000000,,2013-04-04 02:22:00,
2013-04-03 23:02:00,29.0,15.0,-100.00,East,101,1.0,2.0,55,0.00,,,0.00,0.000000,,2013-04-04 03:02:00,
2013-04-03 23:12:00,29.0,15.0,-100.00,East,101,1.0,2.0,55,0.00,,,0.00,0.000000,,2013-04-04 03:12:00,
2013-04-03 23:22:00,29.0,15.0,-100.00,East,101,1.0,2.0,55,0.00,,,0.00,0.000000,,2013-04-04 03:22:00,
2013-04-03 23:23:00,28.0,16.0,-100.00,East,97,1.0,3.0,59,0.00,,,0.00,0.000000,,2013-04-04 03:23:00,
2013-04-03 23:45:00,28.0,16.0,-100.00,East,97,1.0,3.0,59,0.00,,,0.00,0.000000,,2013-04-04 03:45:00,
2013-04-03 23:53:00,28.0,16.0,-100.00,East,97,1.0,3.0,59,0.00,,,0.00,0.000000,,2013-04-04 03:53:00,